sensor_id;sensor_type;location;lat;lon;timestamp;temperature;humidity
6690;DHT22;3382;51.576;8.076;2022-08-21T00:01:19;19.20;99.90
6690;DHT22;3382;51.576;8.076;2022-08-21T00:03:46;19.20;99.90
6690;DHT22;3382;51.576;8.076;2022-08-21T00:06:12;19.20;99.90
6690;DHT22;3382;51.576;8.076;2022-08-21T00:08:37;19.20;99.90
6690;DHT22;3382;51.576;8.076;2022-08-21T00:11:06;19.10;99.90
6690;DHT22;3382;51.576;8.076;2022-08-21T00:13:32;19.10;99.90
6690;DHT22;3382;51.576;8.076;2022-08-21T00:15:58;19.10;99.90
6690;DHT22;3382;51.576;8.076;2022-08-21T00:18:24;19.10;99.90
6690;DHT22;3382;51.576;8.076;2022-08-21T00:20:50;19.10;99.90
6690;DHT22;3382;51.576;8.076;2022-08-21T00:23:15;19.00;99.90
6690;DHT22;3382;51.576;8.076;2022-08-21T00:25:42;19.00;99.90
6690;DHT22;3382;51.576;8.076;2022-08-21T00:28:08;19.00;99.90
6690;DHT22;3382;51.576;8.076;2022-08-21T00:30:34;19.00;99.90
6690;DHT22;3382;51.576;8.076;2022-08-21T00:33:01;18.90;99.90
6690;DHT22;3382;51.576;8.076;2022-08-21T00:35:33;18.90;99.90
6690;DHT22;3382;51.576;8.076;2022-08-21T00:37:58;18.90;99.90
6690;DHT22;3382;51.576;8.076;2022-08-21T00:40:40;18.80;99.90
6690;DHT22;3382;51.576;8.076;2022-08-21T00:43:09;18.80;99.90
6690;DHT22;3382;51.576;8.076;2022-08-21T00:45:35;18.80;99.90
6690;DHT22;3382;51.576;8.076;2022-08-21T00:48:01;18.70;99.90
6690;DHT22;3382;51.576;8.076;2022-08-21T00:50:30;18.70;99.90
6690;DHT22;3382;51.576;8.076;2022-08-21T00:52:57;18.70;99.90
6690;DHT22;3382;51.576;8.076;2022-08-21T00:55:24;18.70;99.90
6690;DHT22;3382;51.576;8.076;2022-08-21T00:57:52;18.60;99.90
6690;DHT22;3382;51.576;8.076;2022-08-21T01:00:27;18.80;99.90
6690;DHT22;3382;51.576;8.076;2022-08-21T01:02:55;18.60;99.90
6690;DHT22;3382;51.576;8.076;2022-08-21T01:05:20;18.60;99.90
6690;DHT22;3382;51.576;8.076;2022-08-21T01:07:46;18.60;99.90
6690;DHT22;3382;51.576;8.076;2022-08-21T01:10:12;18.60;99.90
6690;DHT22;3382;51.576;8.076;2022-08-21T01:12:39;18.50;99.90
6690;DHT22;3382;51.576;8.076;2022-08-21T01:15:06;18.50;99.90
6690;DHT22;3382;51.576;8.076;2022-08-21T01:17:33;18.50;99.90
6690;DHT22;3382;51.576;8.076;2022-08-21T01:20:00;18.50;99.90
6690;DHT22;3382;51.576;8.076;2022-08-21T01:22:26;18.50;99.90
6690;DHT22;3382;51.576;8.076;2022-08-21T01:24:52;18.40;99.90
6690;DHT22;3382;51.576;8.076;2022-08-21T01:27:18;18.30;99.90
6690;DHT22;3382;51.576;8.076;2022-08-21T01:30:12;18.40;99.90
6690;DHT22;3382;51.576;8.076;2022-08-21T01:32:39;18.40;99.90
6690;DHT22;3382;51.576;8.076;2022-08-21T01:35:05;18.30;99.90
6690;DHT22;3382;51.576;8.076;2022-08-21T01:37:31;18.30;99.90
6690;DHT22;3382;51.576;8.076;2022-08-21T01:39:57;18.30;99.90
6690;DHT22;3382;51.576;8.076;2022-08-21T01:42:22;18.30;99.90
6690;DHT22;3382;51.576;8.076;2022-08-21T01:44:48;18.30;99.90
6690;DHT22;3382;51.576;8.076;2022-08-21T01:47:15;18.30;99.90
6690;DHT22;3382;51.576;8.076;2022-08-21T01:49:41;18.30;99.90
6690;DHT22;3382;51.576;8.076;2022-08-21T01:52:07;18.30;99.90
6690;DHT22;3382;51.576;8.076;2022-08-21T01:54:33;18.20;99.90
6690;DHT22;3382;51.576;8.076;2022-08-21T01:56:59;18.20;99.90
6690;DHT22;3382;51.576;8.076;2022-08-21T01:59:26;18.20;99.90
6690;DHT22;3382;51.576;8.076;2022-08-21T02:01:52;18.20;99.90
6690;DHT22;3382;51.576;8.076;2022-08-21T02:04:19;18.20;99.90
6690;DHT22;3382;51.576;8.076;2022-08-21T02:06:45;18.20;99.90
6690;DHT22;3382;51.576;8.076;2022-08-21T02:09:12;18.20;99.90
6690;DHT22;3382;51.576;8.076;2022-08-21T02:11:40;18.20;99.90
6690;DHT22;3382;51.576;8.076;2022-08-21T02:14:13;18.20;99.90
6690;DHT22;3382;51.576;8.076;2022-08-21T02:16:41;18.20;99.90
6690;DHT22;3382;51.576;8.076;2022-08-21T02:19:07;18.20;99.90
6690;DHT22;3382;51.576;8.076;2022-08-21T02:21:32;18.20;99.90
6690;DHT22;3382;51.576;8.076;2022-08-21T02:23:58;18.30;99.90
6690;DHT22;3382;51.576;8.076;2022-08-21T02:26:24;18.30;99.90
6690;DHT22;3382;51.576;8.076;2022-08-21T02:28:49;18.30;99.90
6690;DHT22;3382;51.576;8.076;2022-08-21T02:31:15;18.30;99.90
6690;DHT22;3382;51.576;8.076;2022-08-21T02:33:41;18.30;99.90
6690;DHT22;3382;51.576;8.076;2022-08-21T02:36:08;18.40;99.90
6690;DHT22;3382;51.576;8.076;2022-08-21T02:38:36;18.40;99.90
6690;DHT22;3382;51.576;8.076;2022-08-21T02:41:08;18.40;99.90
6690;DHT22;3382;51.576;8.076;2022-08-21T02:43:35;18.40;99.90
6690;DHT22;3382;51.576;8.076;2022-08-21T02:46:03;18.40;99.90
6690;DHT22;3382;51.576;8.076;2022-08-21T02:48:30;18.40;99.90
6690;DHT22;3382;51.576;8.076;2022-08-21T02:51:03;18.40;99.90
6690;DHT22;3382;51.576;8.076;2022-08-21T02:53:30;18.50;99.90
6690;DHT22;3382;51.576;8.076;2022-08-21T02:55:59;18.50;99.90
6690;DHT22;3382;51.576;8.076;2022-08-21T02:58:28;18.50;99.90
6690;DHT22;3382;51.576;8.076;2022-08-21T03:00:54;18.50;99.90
6690;DHT22;3382;51.576;8.076;2022-08-21T03:03:20;18.50;99.90
6690;DHT22;3382;51.576;8.076;2022-08-21T03:05:47;18.50;99.90
6690;DHT22;3382;51.576;8.076;2022-08-21T03:08:14;18.50;99.90
6690;DHT22;3382;51.576;8.076;2022-08-21T03:10:43;18.50;99.90
6690;DHT22;3382;51.576;8.076;2022-08-21T03:13:10;18.60;99.90
6690;DHT22;3382;51.576;8.076;2022-08-21T03:15:37;18.60;99.90
6690;DHT22;3382;51.576;8.076;2022-08-21T03:18:03;18.60;99.90
6690;DHT22;3382;51.576;8.076;2022-08-21T03:20:30;18.70;99.90
6690;DHT22;3382;51.576;8.076;2022-08-21T03:22:56;18.70;99.90
6690;DHT22;3382;51.576;8.076;2022-08-21T03:25:23;18.70;99.90
6690;DHT22;3382;51.576;8.076;2022-08-21T03:27:49;18.70;99.90
6690;DHT22;3382;51.576;8.076;2022-08-21T03:30:17;18.60;99.90
6690;DHT22;3382;51.576;8.076;2022-08-21T03:32:44;18.60;99.90
6690;DHT22;3382;51.576;8.076;2022-08-21T03:35:10;18.70;99.90
6690;DHT22;3382;51.576;8.076;2022-08-21T03:37:36;18.70;99.90
6690;DHT22;3382;51.576;8.076;2022-08-21T03:40:06;18.60;99.90
6690;DHT22;3382;51.576;8.076;2022-08-21T03:42:32;18.70;99.90
6690;DHT22;3382;51.576;8.076;2022-08-21T03:44:58;18.70;99.90
6690;DHT22;3382;51.576;8.076;2022-08-21T03:47:24;18.70;99.90
6690;DHT22;3382;51.576;8.076;2022-08-21T03:49:50;18.60;99.90
6690;DHT22;3382;51.576;8.076;2022-08-21T03:52:16;18.60;99.90
6690;DHT22;3382;51.576;8.076;2022-08-21T03:54:42;18.60;99.90
6690;DHT22;3382;51.576;8.076;2022-08-21T03:57:09;18.70;99.90
6690;DHT22;3382;51.576;8.076;2022-08-21T03:59:35;18.60;99.90
6690;DHT22;3382;51.576;8.076;2022-08-21T04:02:04;18.60;99.90
6690;DHT22;3382;51.576;8.076;2022-08-21T04:04:30;18.60;99.90
6690;DHT22;3382;51.576;8.076;2022-08-21T04:06:56;18.60;99.90
6690;DHT22;3382;51.576;8.076;2022-08-21T04:09:23;18.60;99.90
6690;DHT22;3382;51.576;8.076;2022-08-21T04:11:49;18.70;99.90
6690;DHT22;3382;51.576;8.076;2022-08-21T04:14:16;18.70;99.90
6690;DHT22;3382;51.576;8.076;2022-08-21T04:16:43;18.70;99.90
6690;DHT22;3382;51.576;8.076;2022-08-21T04:19:11;18.80;99.90
6690;DHT22;3382;51.576;8.076;2022-08-21T04:21:39;18.80;99.90
6690;DHT22;3382;51.576;8.076;2022-08-21T04:24:06;18.80;99.90
6690;DHT22;3382;51.576;8.076;2022-08-21T04:26:33;18.80;99.90
6690;DHT22;3382;51.576;8.076;2022-08-21T04:29:00;18.80;99.90
6690;DHT22;3382;51.576;8.076;2022-08-21T04:31:26;18.80;99.90
6690;DHT22;3382;51.576;8.076;2022-08-21T04:33:53;18.70;99.90
6690;DHT22;3382;51.576;8.076;2022-08-21T04:36:19;18.70;99.90
6690;DHT22;3382;51.576;8.076;2022-08-21T04:38:44;18.70;99.90
6690;DHT22;3382;51.576;8.076;2022-08-21T04:41:10;18.60;99.90
6690;DHT22;3382;51.576;8.076;2022-08-21T04:43:37;18.60;99.90
6690;DHT22;3382;51.576;8.076;2022-08-21T04:46:03;18.60;99.90
6690;DHT22;3382;51.576;8.076;2022-08-21T04:48:29;18.60;99.90
6690;DHT22;3382;51.576;8.076;2022-08-21T04:51:03;18.50;99.90
6690;DHT22;3382;51.576;8.076;2022-08-21T04:53:33;18.50;99.90
6690;DHT22;3382;51.576;8.076;2022-08-21T04:56:04;18.60;99.90
6690;DHT22;3382;51.576;8.076;2022-08-21T04:58:34;18.60;99.90
6690;DHT22;3382;51.576;8.076;2022-08-21T05:01:00;18.60;99.90
6690;DHT22;3382;51.576;8.076;2022-08-21T05:03:27;18.60;99.90
6690;DHT22;3382;51.576;8.076;2022-08-21T05:05:54;18.60;99.90
6690;DHT22;3382;51.576;8.076;2022-08-21T05:08:22;18.60;99.90
6690;DHT22;3382;51.576;8.076;2022-08-21T05:10:49;18.60;99.90
6690;DHT22;3382;51.576;8.076;2022-08-21T05:13:15;18.70;99.90
6690;DHT22;3382;51.576;8.076;2022-08-21T05:15:41;18.70;99.90
6690;DHT22;3382;51.576;8.076;2022-08-21T05:18:07;18.90;99.90
6690;DHT22;3382;51.576;8.076;2022-08-21T05:20:34;19.40;99.90
6690;DHT22;3382;51.576;8.076;2022-08-21T05:23:00;20.00;99.90
6690;DHT22;3382;51.576;8.076;2022-08-21T05:25:27;20.60;99.90
6690;DHT22;3382;51.576;8.076;2022-08-21T05:27:52;21.00;99.90
6690;DHT22;3382;51.576;8.076;2022-08-21T05:30:19;21.30;99.90
6690;DHT22;3382;51.576;8.076;2022-08-21T05:32:46;21.70;99.90
6690;DHT22;3382;51.576;8.076;2022-08-21T05:35:13;22.00;99.90
6690;DHT22;3382;51.576;8.076;2022-08-21T05:37:39;22.30;99.90
6690;DHT22;3382;51.576;8.076;2022-08-21T05:40:05;22.60;99.90
6690;DHT22;3382;51.576;8.076;2022-08-21T05:42:33;22.80;99.90
6690;DHT22;3382;51.576;8.076;2022-08-21T05:44:59;23.10;99.90
6690;DHT22;3382;51.576;8.076;2022-08-21T05:47:24;23.30;99.90
6690;DHT22;3382;51.576;8.076;2022-08-21T05:49:50;23.60;99.90
6690;DHT22;3382;51.576;8.076;2022-08-21T05:52:22;23.80;99.90
6690;DHT22;3382;51.576;8.076;2022-08-21T05:54:49;24.10;99.90
6690;DHT22;3382;51.576;8.076;2022-08-21T05:57:15;24.20;99.90
6690;DHT22;3382;51.576;8.076;2022-08-21T05:59:41;24.40;99.90
6690;DHT22;3382;51.576;8.076;2022-08-21T06:02:07;24.50;99.90
6690;DHT22;3382;51.576;8.076;2022-08-21T06:04:37;24.10;99.90
6690;DHT22;3382;51.576;8.076;2022-08-21T06:07:03;23.70;99.90
6690;DHT22;3382;51.576;8.076;2022-08-21T06:09:29;23.40;99.90
6690;DHT22;3382;51.576;8.076;2022-08-21T06:11:55;23.20;99.90
6690;DHT22;3382;51.576;8.076;2022-08-21T06:14:20;23.00;99.90
6690;DHT22;3382;51.576;8.076;2022-08-21T06:16:46;22.80;99.90
6690;DHT22;3382;51.576;8.076;2022-08-21T06:19:12;22.80;99.90
6690;DHT22;3382;51.576;8.076;2022-08-21T06:21:37;22.80;99.90
6690;DHT22;3382;51.576;8.076;2022-08-21T06:24:04;22.80;99.90
6690;DHT22;3382;51.576;8.076;2022-08-21T06:26:30;22.80;99.90
6690;DHT22;3382;51.576;8.076;2022-08-21T06:28:56;22.80;99.90
6690;DHT22;3382;51.576;8.076;2022-08-21T06:31:24;22.80;99.90
6690;DHT22;3382;51.576;8.076;2022-08-21T06:33:50;22.70;99.90
6690;DHT22;3382;51.576;8.076;2022-08-21T06:36:18;22.80;99.90
6690;DHT22;3382;51.576;8.076;2022-08-21T06:38:45;22.80;99.90
6690;DHT22;3382;51.576;8.076;2022-08-21T06:41:11;23.20;99.90
6690;DHT22;3382;51.576;8.076;2022-08-21T06:43:37;23.60;99.90
6690;DHT22;3382;51.576;8.076;2022-08-21T06:46:02;23.90;99.90
6690;DHT22;3382;51.576;8.076;2022-08-21T06:48:28;23.70;99.90
6690;DHT22;3382;51.576;8.076;2022-08-21T06:50:58;23.80;99.90
6690;DHT22;3382;51.576;8.076;2022-08-21T06:53:24;23.80;99.90
6690;DHT22;3382;51.576;8.076;2022-08-21T06:55:50;23.70;99.90
6690;DHT22;3382;51.576;8.076;2022-08-21T06:58:16;23.60;99.90
6690;DHT22;3382;51.576;8.076;2022-08-21T07:00:45;23.60;99.90
6690;DHT22;3382;51.576;8.076;2022-08-21T07:03:26;23.60;99.90
6690;DHT22;3382;51.576;8.076;2022-08-21T07:05:53;23.90;99.90
6690;DHT22;3382;51.576;8.076;2022-08-21T07:08:19;24.10;99.90
6690;DHT22;3382;51.576;8.076;2022-08-21T07:10:45;24.40;99.90
6690;DHT22;3382;51.576;8.076;2022-08-21T07:13:11;24.70;99.90
6690;DHT22;3382;51.576;8.076;2022-08-21T07:15:37;24.70;99.90
6690;DHT22;3382;51.576;8.076;2022-08-21T07:18:03;24.60;99.90
6690;DHT22;3382;51.576;8.076;2022-08-21T07:20:30;24.80;99.90
6690;DHT22;3382;51.576;8.076;2022-08-21T07:22:59;25.10;99.90
6690;DHT22;3382;51.576;8.076;2022-08-21T07:25:26;25.40;99.90
6690;DHT22;3382;51.576;8.076;2022-08-21T07:27:52;25.70;99.90
6690;DHT22;3382;51.576;8.076;2022-08-21T07:30:18;25.90;99.90
6690;DHT22;3382;51.576;8.076;2022-08-21T07:32:43;25.70;99.90
6690;DHT22;3382;51.576;8.076;2022-08-21T07:35:09;25.40;99.90
6690;DHT22;3382;51.576;8.076;2022-08-21T07:37:35;25.30;99.90
6690;DHT22;3382;51.576;8.076;2022-08-21T07:40:00;25.60;99.90
6690;DHT22;3382;51.576;8.076;2022-08-21T07:42:26;25.90;99.90
6690;DHT22;3382;51.576;8.076;2022-08-21T07:44:52;25.70;99.90
6690;DHT22;3382;51.576;8.076;2022-08-21T07:47:17;25.60;99.90
6690;DHT22;3382;51.576;8.076;2022-08-21T07:49:43;25.50;99.90
6690;DHT22;3382;51.576;8.076;2022-08-21T07:52:08;25.40;99.90
6690;DHT22;3382;51.576;8.076;2022-08-21T07:54:34;25.50;99.90
6690;DHT22;3382;51.576;8.076;2022-08-21T07:57:00;25.70;99.90
6690;DHT22;3382;51.576;8.076;2022-08-21T07:59:26;25.90;99.90
6690;DHT22;3382;51.576;8.076;2022-08-21T08:01:52;26.30;99.90
6690;DHT22;3382;51.576;8.076;2022-08-21T08:04:17;26.60;99.90
6690;DHT22;3382;51.576;8.076;2022-08-21T08:06:43;26.70;99.90
6690;DHT22;3382;51.576;8.076;2022-08-21T08:09:08;26.80;99.90
6690;DHT22;3382;51.576;8.076;2022-08-21T08:11:35;26.70;99.90
6690;DHT22;3382;51.576;8.076;2022-08-21T08:14:02;26.70;99.90
6690;DHT22;3382;51.576;8.076;2022-08-21T08:16:29;26.70;99.90
6690;DHT22;3382;51.576;8.076;2022-08-21T08:18:54;26.70;99.90
6690;DHT22;3382;51.576;8.076;2022-08-21T08:21:21;26.70;99.90
6690;DHT22;3382;51.576;8.076;2022-08-21T08:23:47;26.90;99.90
6690;DHT22;3382;51.576;8.076;2022-08-21T08:26:12;27.20;99.90
6690;DHT22;3382;51.576;8.076;2022-08-21T08:28:38;27.40;99.90
6690;DHT22;3382;51.576;8.076;2022-08-21T08:31:04;27.40;99.90
6690;DHT22;3382;51.576;8.076;2022-08-21T08:33:30;27.10;99.90
6690;DHT22;3382;51.576;8.076;2022-08-21T08:35:55;27.30;99.90
6690;DHT22;3382;51.576;8.076;2022-08-21T08:38:23;27.40;99.90
6690;DHT22;3382;51.576;8.076;2022-08-21T08:41:01;27.30;99.90
6690;DHT22;3382;51.576;8.076;2022-08-21T08:43:28;27.30;99.90
6690;DHT22;3382;51.576;8.076;2022-08-21T08:45:57;27.30;99.90
6690;DHT22;3382;51.576;8.076;2022-08-21T08:51:15;27.30;99.90
6690;DHT22;3382;51.576;8.076;2022-08-21T08:53:57;27.30;99.90
6690;DHT22;3382;51.576;8.076;2022-08-21T08:56:31;27.30;99.90
6690;DHT22;3382;51.576;8.076;2022-08-21T08:59:03;27.20;99.90
6690;DHT22;3382;51.576;8.076;2022-08-21T09:01:32;26.90;99.90
6690;DHT22;3382;51.576;8.076;2022-08-21T09:03:58;27.00;99.90
6690;DHT22;3382;51.576;8.076;2022-08-21T09:17:59;27.40;99.90
6690;DHT22;3382;51.576;8.076;2022-08-21T09:21:20;27.40;99.90
6690;DHT22;3382;51.576;8.076;2022-08-21T09:23:40;27.50;99.90
6690;DHT22;3382;51.576;8.076;2022-08-21T09:26:17;27.60;99.90
6690;DHT22;3382;51.576;8.076;2022-08-21T09:28:45;27.60;99.90
6690;DHT22;3382;51.576;8.076;2022-08-21T09:31:30;27.60;99.90
6690;DHT22;3382;51.576;8.076;2022-08-21T09:34:03;27.50;99.90
6690;DHT22;3382;51.576;8.076;2022-08-21T09:36:43;27.50;99.90
6690;DHT22;3382;51.576;8.076;2022-08-21T09:39:10;27.40;99.90
6690;DHT22;3382;51.576;8.076;2022-08-21T09:41:37;27.40;99.90
6690;DHT22;3382;51.576;8.076;2022-08-21T09:44:04;27.50;99.90
6690;DHT22;3382;51.576;8.076;2022-08-21T09:46:30;27.60;99.90
6690;DHT22;3382;51.576;8.076;2022-08-21T09:49:01;27.60;99.90
6690;DHT22;3382;51.576;8.076;2022-08-21T09:51:32;27.60;99.90
6690;DHT22;3382;51.576;8.076;2022-08-21T09:59:31;27.50;99.90
6690;DHT22;3382;51.576;8.076;2022-08-21T10:02:00;27.40;99.90
6690;DHT22;3382;51.576;8.076;2022-08-21T10:04:35;27.40;99.90
6690;DHT22;3382;51.576;8.076;2022-08-21T10:09:34;27.70;99.90
6690;DHT22;3382;51.576;8.076;2022-08-21T10:12:21;27.80;99.90
6690;DHT22;3382;51.576;8.076;2022-08-21T10:17:53;27.40;99.90
6690;DHT22;3382;51.576;8.076;2022-08-21T10:20:29;27.40;99.90
6690;DHT22;3382;51.576;8.076;2022-08-21T10:23:05;27.60;99.90
6690;DHT22;3382;51.576;8.076;2022-08-21T10:25:47;27.80;99.90
6690;DHT22;3382;51.576;8.076;2022-08-21T10:28:27;27.90;99.90
6690;DHT22;3382;51.576;8.076;2022-08-21T10:36:33;28.10;99.90
6690;DHT22;3382;51.576;8.076;2022-08-21T10:47:34;28.20;99.90
6690;DHT22;3382;51.576;8.076;2022-08-21T10:55:19;27.90;97.90
6690;DHT22;3382;51.576;8.076;2022-08-21T10:57:58;28.10;99.00
6690;DHT22;3382;51.576;8.076;2022-08-21T11:00:30;28.30;99.90
6690;DHT22;3382;51.576;8.076;2022-08-21T11:05:35;28.10;97.80
6690;DHT22;3382;51.576;8.076;2022-08-21T11:08:09;28.20;99.20
6690;DHT22;3382;51.576;8.076;2022-08-21T11:10:45;28.30;98.40
6690;DHT22;3382;51.576;8.076;2022-08-21T11:13:19;28.20;96.10
6690;DHT22;3382;51.576;8.076;2022-08-21T11:16:19;28.10;95.40
6690;DHT22;3382;51.576;8.076;2022-08-21T11:18:56;28.00;96.70
6690;DHT22;3382;51.576;8.076;2022-08-21T11:29:51;28.20;98.50
6690;DHT22;3382;51.576;8.076;2022-08-21T11:32:39;28.40;97.40
6690;DHT22;3382;51.576;8.076;2022-08-21T11:43:55;28.30;93.40
6690;DHT22;3382;51.576;8.076;2022-08-21T11:52:16;28.30;93.80
6690;DHT22;3382;51.576;8.076;2022-08-21T11:54:52;28.20;90.80
6690;DHT22;3382;51.576;8.076;2022-08-21T12:00:29;28.60;98.80
6690;DHT22;3382;51.576;8.076;2022-08-21T12:03:05;28.90;99.90
6690;DHT22;3382;51.576;8.076;2022-08-21T12:05:36;29.20;99.90
6690;DHT22;3382;51.576;8.076;2022-08-21T12:08:28;29.10;99.90
6690;DHT22;3382;51.576;8.076;2022-08-21T12:11:06;28.70;99.50
6690;DHT22;3382;51.576;8.076;2022-08-21T12:13:58;28.30;96.50
6690;DHT22;3382;51.576;8.076;2022-08-21T12:21:59;27.50;89.90
6690;DHT22;3382;51.576;8.076;2022-08-21T12:24:41;27.50;90.00
6690;DHT22;3382;51.576;8.076;2022-08-21T12:30:18;27.40;89.60
6690;DHT22;3382;51.576;8.076;2022-08-21T12:32:58;27.50;90.00
6690;DHT22;3382;51.576;8.076;2022-08-21T12:35:39;27.40;89.90
6690;DHT22;3382;51.576;8.076;2022-08-21T12:38:21;27.40;90.20
6690;DHT22;3382;51.576;8.076;2022-08-21T12:40:58;27.40;86.40
6690;DHT22;3382;51.576;8.076;2022-08-21T12:43:39;27.30;84.40
6690;DHT22;3382;51.576;8.076;2022-08-21T12:46:06;27.40;85.20
6690;DHT22;3382;51.576;8.076;2022-08-21T12:48:39;27.40;85.50
6690;DHT22;3382;51.576;8.076;2022-08-21T12:51:16;27.50;85.40
6690;DHT22;3382;51.576;8.076;2022-08-21T12:53:50;27.40;86.00
6690;DHT22;3382;51.576;8.076;2022-08-21T12:56:19;27.40;85.70
6690;DHT22;3382;51.576;8.076;2022-08-21T12:58:57;27.30;86.00
6690;DHT22;3382;51.576;8.076;2022-08-21T13:01:31;27.20;87.00
6690;DHT22;3382;51.576;8.076;2022-08-21T13:04:03;27.10;88.20
6690;DHT22;3382;51.576;8.076;2022-08-21T13:06:36;27.20;88.90
6690;DHT22;3382;51.576;8.076;2022-08-21T13:09:11;27.30;87.60
6690;DHT22;3382;51.576;8.076;2022-08-21T13:11:39;27.30;87.40
6690;DHT22;3382;51.576;8.076;2022-08-21T13:14:06;27.20;87.70
6690;DHT22;3382;51.576;8.076;2022-08-21T13:16:39;27.20;86.90
6690;DHT22;3382;51.576;8.076;2022-08-21T13:19:07;27.30;86.00
6690;DHT22;3382;51.576;8.076;2022-08-21T13:21:39;27.30;85.00
6690;DHT22;3382;51.576;8.076;2022-08-21T13:24:25;27.30;84.80
6690;DHT22;3382;51.576;8.076;2022-08-21T13:26:51;27.20;85.20
6690;DHT22;3382;51.576;8.076;2022-08-21T13:29:19;27.10;82.00
6690;DHT22;3382;51.576;8.076;2022-08-21T13:31:49;27.10;81.30
6690;DHT22;3382;51.576;8.076;2022-08-21T13:34:18;27.10;81.40
6690;DHT22;3382;51.576;8.076;2022-08-21T13:36:44;27.20;81.40
6690;DHT22;3382;51.576;8.076;2022-08-21T13:39:14;27.30;81.90
6690;DHT22;3382;51.576;8.076;2022-08-21T13:41:43;27.30;79.40
6690;DHT22;3382;51.576;8.076;2022-08-21T13:44:21;27.30;79.70
6690;DHT22;3382;51.576;8.076;2022-08-21T13:46:48;27.30;78.70
6690;DHT22;3382;51.576;8.076;2022-08-21T13:49:18;27.30;79.40
6690;DHT22;3382;51.576;8.076;2022-08-21T13:51:45;27.30;79.00
6690;DHT22;3382;51.576;8.076;2022-08-21T13:54:27;27.20;78.70
6690;DHT22;3382;51.576;8.076;2022-08-21T13:56:54;27.20;79.30
6690;DHT22;3382;51.576;8.076;2022-08-21T13:59:28;27.10;80.50
6690;DHT22;3382;51.576;8.076;2022-08-21T14:01:57;26.80;80.00
6690;DHT22;3382;51.576;8.076;2022-08-21T14:04:36;26.80;80.90
6690;DHT22;3382;51.576;8.076;2022-08-21T14:07:17;26.80;81.50
6690;DHT22;3382;51.576;8.076;2022-08-21T14:09:45;26.70;82.40
6690;DHT22;3382;51.576;8.076;2022-08-21T14:12:19;26.70;82.80
6690;DHT22;3382;51.576;8.076;2022-08-21T14:14:49;26.80;83.10
6690;DHT22;3382;51.576;8.076;2022-08-21T14:17:28;26.90;81.70
6690;DHT22;3382;51.576;8.076;2022-08-21T14:19:54;26.90;80.10
6690;DHT22;3382;51.576;8.076;2022-08-21T14:24:48;27.00;79.30
6690;DHT22;3382;51.576;8.076;2022-08-21T14:27:17;27.00;78.40
6690;DHT22;3382;51.576;8.076;2022-08-21T14:29:44;27.10;78.50
6690;DHT22;3382;51.576;8.076;2022-08-21T14:32:21;27.10;79.00
6690;DHT22;3382;51.576;8.076;2022-08-21T14:34:47;27.10;79.70
6690;DHT22;3382;51.576;8.076;2022-08-21T14:37:13;27.00;78.90
6690;DHT22;3382;51.576;8.076;2022-08-21T14:39:39;27.00;79.10
6690;DHT22;3382;51.576;8.076;2022-08-21T14:42:04;27.10;78.90
6690;DHT22;3382;51.576;8.076;2022-08-21T14:44:30;27.10;78.40
6690;DHT22;3382;51.576;8.076;2022-08-21T14:46:58;27.10;78.30
6690;DHT22;3382;51.576;8.076;2022-08-21T14:49:26;27.10;77.10
6690;DHT22;3382;51.576;8.076;2022-08-21T14:51:51;27.00;76.80
6690;DHT22;3382;51.576;8.076;2022-08-21T14:54:23;26.90;76.40
6690;DHT22;3382;51.576;8.076;2022-08-21T14:56:49;26.90;77.50
6690;DHT22;3382;51.576;8.076;2022-08-21T14:59:16;27.00;77.20
6690;DHT22;3382;51.576;8.076;2022-08-21T15:01:42;26.90;77.00
6690;DHT22;3382;51.576;8.076;2022-08-21T15:04:08;26.90;77.10
6690;DHT22;3382;51.576;8.076;2022-08-21T15:06:33;26.90;77.90
6690;DHT22;3382;51.576;8.076;2022-08-21T15:08:59;26.90;77.90
6690;DHT22;3382;51.576;8.076;2022-08-21T15:11:25;26.90;78.40
6690;DHT22;3382;51.576;8.076;2022-08-21T15:13:56;27.00;77.50
6690;DHT22;3382;51.576;8.076;2022-08-21T15:16:23;26.90;76.80
6690;DHT22;3382;51.576;8.076;2022-08-21T15:18:49;26.90;76.60
6690;DHT22;3382;51.576;8.076;2022-08-21T15:21:15;27.00;76.80
6690;DHT22;3382;51.576;8.076;2022-08-21T15:23:41;26.90;75.70
6690;DHT22;3382;51.576;8.076;2022-08-21T15:26:06;26.90;75.50
6690;DHT22;3382;51.576;8.076;2022-08-21T15:28:33;26.90;76.10
6690;DHT22;3382;51.576;8.076;2022-08-21T15:31:00;26.90;76.80
6690;DHT22;3382;51.576;8.076;2022-08-21T15:33:26;26.90;78.10
6690;DHT22;3382;51.576;8.076;2022-08-21T15:35:52;26.80;77.50
6690;DHT22;3382;51.576;8.076;2022-08-21T15:38:17;26.80;77.50
6690;DHT22;3382;51.576;8.076;2022-08-21T15:40:44;26.80;78.20
6690;DHT22;3382;51.576;8.076;2022-08-21T15:43:27;26.90;77.00
6690;DHT22;3382;51.576;8.076;2022-08-21T15:45:53;26.80;76.10
6690;DHT22;3382;51.576;8.076;2022-08-21T15:48:20;26.80;76.70
6690;DHT22;3382;51.576;8.076;2022-08-21T15:50:46;26.70;76.90
6690;DHT22;3382;51.576;8.076;2022-08-21T15:53:12;26.40;77.10
6690;DHT22;3382;51.576;8.076;2022-08-21T15:55:38;26.30;78.30
6690;DHT22;3382;51.576;8.076;2022-08-21T15:58:04;26.20;78.70
6690;DHT22;3382;51.576;8.076;2022-08-21T16:00:31;26.20;79.20
6690;DHT22;3382;51.576;8.076;2022-08-21T16:02:59;26.10;79.30
6690;DHT22;3382;51.576;8.076;2022-08-21T16:05:26;26.10;79.60
6690;DHT22;3382;51.576;8.076;2022-08-21T16:07:52;26.10;80.10
6690;DHT22;3382;51.576;8.076;2022-08-21T16:10:19;26.10;80.30
6690;DHT22;3382;51.576;8.076;2022-08-21T16:12:49;26.10;80.90
6690;DHT22;3382;51.576;8.076;2022-08-21T16:15:16;26.10;81.20
6690;DHT22;3382;51.576;8.076;2022-08-21T16:17:44;26.10;81.40
6690;DHT22;3382;51.576;8.076;2022-08-21T16:20:15;26.10;81.80
6690;DHT22;3382;51.576;8.076;2022-08-21T16:22:41;26.10;82.10
6690;DHT22;3382;51.576;8.076;2022-08-21T16:25:07;26.10;82.60
6690;DHT22;3382;51.576;8.076;2022-08-21T16:27:34;26.10;82.90
6690;DHT22;3382;51.576;8.076;2022-08-21T16:30:00;26.10;83.40
6690;DHT22;3382;51.576;8.076;2022-08-21T16:32:26;26.10;84.20
6690;DHT22;3382;51.576;8.076;2022-08-21T16:34:52;26.10;84.60
6690;DHT22;3382;51.576;8.076;2022-08-21T16:37:18;26.10;85.30
6690;DHT22;3382;51.576;8.076;2022-08-21T16:39:44;26.00;85.90
6690;DHT22;3382;51.576;8.076;2022-08-21T16:42:13;26.00;86.00
6690;DHT22;3382;51.576;8.076;2022-08-21T16:44:41;26.00;86.40
6690;DHT22;3382;51.576;8.076;2022-08-21T16:47:06;25.90;85.80
6690;DHT22;3382;51.576;8.076;2022-08-21T16:49:33;25.80;86.80
6690;DHT22;3382;51.576;8.076;2022-08-21T16:51:58;25.80;86.50
6690;DHT22;3382;51.576;8.076;2022-08-21T16:54:24;25.80;87.10
6690;DHT22;3382;51.576;8.076;2022-08-21T16:56:50;25.80;87.30
6690;DHT22;3382;51.576;8.076;2022-08-21T16:59:16;25.80;86.90
6690;DHT22;3382;51.576;8.076;2022-08-21T17:01:42;25.80;86.50
6690;DHT22;3382;51.576;8.076;2022-08-21T17:04:07;25.80;86.70
6690;DHT22;3382;51.576;8.076;2022-08-21T17:06:33;25.80;87.00
6690;DHT22;3382;51.576;8.076;2022-08-21T17:08:59;25.80;86.60
6690;DHT22;3382;51.576;8.076;2022-08-21T17:13:55;25.80;86.90
6690;DHT22;3382;51.576;8.076;2022-08-21T17:16:22;25.80;87.40
6690;DHT22;3382;51.576;8.076;2022-08-21T17:18:47;25.80;87.00
6690;DHT22;3382;51.576;8.076;2022-08-21T17:21:14;25.70;86.60
6690;DHT22;3382;51.576;8.076;2022-08-21T17:23:40;25.70;87.10
6690;DHT22;3382;51.576;8.076;2022-08-21T17:26:06;25.70;87.60
6690;DHT22;3382;51.576;8.076;2022-08-21T17:28:34;25.70;88.00
6690;DHT22;3382;51.576;8.076;2022-08-21T17:31:02;25.70;88.00
6690;DHT22;3382;51.576;8.076;2022-08-21T17:33:33;25.60;87.90
6690;DHT22;3382;51.576;8.076;2022-08-21T17:36:01;25.60;88.00
6690;DHT22;3382;51.576;8.076;2022-08-21T17:38:28;25.60;88.20